createdAt,value
2019-05-07T00:01:56.854Z,98890.80
2019-05-07T00:07:02.538Z,98876.62
2019-05-07T00:12:07.957Z,98875.67
2019-05-07T00:17:13.226Z,98865.52
2019-05-07T00:22:18.527Z,98860.02
2019-05-07T00:27:23.854Z,98860.97
2019-05-07T00:32:29.494Z,98858.31
2019-05-07T00:37:42.999Z,98861.80
2019-05-07T00:43:05.854Z,98860.02
2019-05-07T00:48:12.657Z,98847.70
2019-05-07T00:53:18.206Z,98849.58
2019-05-07T00:58:26.767Z,98847.13
2019-05-07T01:03:32.778Z,98840.25
2019-05-07T01:08:37.911Z,98842.03
2019-05-07T01:13:43.585Z,98839.71
2019-05-07T01:18:48.903Z,98842.53
2019-05-07T01:23:55.123Z,98838.59
2019-05-07T01:29:02.846Z,98834.62
2019-05-07T01:34:27.024Z,98834.78
2019-05-07T01:39:32.897Z,98833.09
2019-05-07T01:44:38.234Z,98831.69
2019-05-07T01:49:43.582Z,98844.66
2019-05-07T01:54:48.862Z,98836.04
2019-05-07T01:59:54.157Z,98835.30
2019-05-07T02:05:05.921Z,98833.11
2019-05-07T02:10:32.137Z,98830.41
2019-05-07T02:15:37.673Z,98830.28
2019-05-07T02:20:43.247Z,98828.91
2019-05-07T02:25:48.475Z,98827.75
2019-05-07T02:30:53.740Z,98833.64
2019-05-07T02:35:59.136Z,98831.98
2019-05-07T02:41:09.834Z,98829.66
2019-05-07T02:46:30.915Z,98833.50
2019-05-07T02:51:36.360Z,98829.94
2019-05-07T02:56:43.240Z,98833.42
2019-05-07T03:01:48.996Z,98832.79
2019-05-07T03:06:54.690Z,98832.88
2019-05-07T03:11:59.979Z,98833.94
2019-05-07T03:17:05.586Z,98825.70
2019-05-07T03:22:14.029Z,98825.45
2019-05-07T03:27:17.872Z,98822.97
2019-05-07T03:32:36.574Z,98824.27
2019-05-07T03:37:38.810Z,98821.16
2019-05-07T03:42:45.356Z,98827.43
2019-05-07T03:47:56.575Z,98824.61
2019-05-07T03:53:02.726Z,98822.36
2019-05-07T03:58:08.279Z,98819.52
2019-05-07T04:03:18.783Z,98814.98
2019-05-07T04:08:23.557Z,98813.72
2019-05-07T04:13:29.007Z,98813.92
2019-05-07T04:18:34.399Z,98816.48
2019-05-07T04:23:39.611Z,98810.81
2019-05-07T04:28:54.104Z,98817.81
2019-05-07T04:34:03.736Z,98815.62
2019-05-07T04:39:09.470Z,98816.86
2019-05-07T04:44:14.798Z,98820.83
2019-05-07T04:49:20.299Z,98818.27
2019-05-07T04:54:25.990Z,98821.67
2019-05-07T04:59:33.025Z,98824.61
2019-05-07T05:04:39.096Z,98823.62
2019-05-07T05:09:44.422Z,98816.56
2019-05-07T05:14:49.658Z,98817.94
2019-05-07T05:19:56.432Z,98817.61
2019-05-07T05:25:12.093Z,98821.79
2019-05-07T05:30:26.426Z,98826.51
2019-05-07T05:35:32.178Z,98830.59
2019-05-07T05:40:37.394Z,98833.85
2019-05-07T05:45:44.255Z,98831.69
2019-05-07T05:51:07.111Z,98831.72
2019-05-07T05:56:19.778Z,98831.72
2019-05-07T06:01:53.267Z,98826.33
2019-05-07T06:07:10.765Z,98836.81
2019-05-07T06:12:42.835Z,98833.19
2019-05-07T06:18:02.586Z,98827.93
2019-05-07T06:23:23.907Z,98830.39
2019-05-07T06:28:29.211Z,98834.70
2019-05-07T06:33:34.568Z,98832.56
2019-05-07T06:38:48.931Z,98830.77
2019-05-07T06:44:02.098Z,98830.98
2019-05-07T06:49:08.609Z,98826.95
2019-05-07T06:54:14.012Z,98828.39
2019-05-07T06:59:34.578Z,98832.39
2019-05-07T07:05:02.864Z,98828.45
2019-05-07T07:10:33.295Z,98821.27
2019-05-07T07:15:38.854Z,98823.45
2019-05-07T07:20:45.115Z,98824.48
2019-05-07T07:25:52.253Z,98814.80
2019-05-07T07:31:19.743Z,98810.31
2019-05-07T07:36:26.942Z,98813.09
2019-05-07T07:41:38.688Z,98806.64
2019-05-07T07:46:43.964Z,98806.42
2019-05-07T07:51:49.346Z,98807.39
2019-05-07T07:57:13.605Z,98793.30
2019-05-07T08:02:42.301Z,98794.03
2019-05-07T08:07:47.592Z,98797.34
2019-05-07T08:12:53.011Z,98796.48
2019-05-07T08:17:58.340Z,98798.89
2019-05-07T08:23:03.768Z,98795.53
2019-05-07T08:28:09.130Z,98797.13
2019-05-07T08:33:19.336Z,98793.56
2019-05-07T08:38:24.910Z,98790.86
2019-05-07T08:43:32.157Z,98786.38
2019-05-07T08:48:42.476Z,98787.37
2019-05-07T08:53:52.777Z,98782.01
2019-05-07T08:58:58.147Z,98775.26
2019-05-07T09:04:03.497Z,98774.02
2019-05-07T09:09:13.177Z,98768.64
2019-05-07T09:14:18.672Z,98765.40
2019-05-07T09:19:25.375Z,98760.56
2019-05-07T09:24:33.218Z,98757.30
2019-05-07T09:29:56.844Z,98753.28
2019-05-07T09:35:02.483Z,98750.20
2019-05-07T09:40:08.964Z,98747.39
2019-05-07T09:45:14.488Z,98750.27
2019-05-07T09:50:22.087Z,98740.47
2019-05-07T09:55:27.383Z,98739.75
2019-05-07T10:00:32.851Z,98738.31
2019-05-07T10:05:39.956Z,98727.92
2019-05-07T10:10:50.215Z,98727.58
2019-05-07T10:15:54.215Z,98725.84
2019-05-07T10:21:00.046Z,98717.16
2019-05-07T10:26:05.323Z,98710.05
2019-05-07T10:31:10.831Z,98712.29
2019-05-07T10:36:16.171Z,98705.79
2019-05-07T10:41:22.360Z,98699.27
2019-05-07T10:46:56.059Z,98695.84
2019-05-07T10:52:02.153Z,98691.47
2019-05-07T10:57:07.757Z,98687.02
2019-05-07T11:02:18.803Z,98685.69
2019-05-07T11:07:24.993Z,98677.84
2019-05-07T11:12:31.947Z,98676.73
2019-05-07T11:17:47.207Z,98671.38
2019-05-07T11:22:52.574Z,98661.08
2019-05-07T11:27:59.430Z,98665.03
2019-05-07T11:33:04.717Z,98656.88
2019-05-07T11:38:18.702Z,98650.27
2019-05-07T11:43:27.655Z,98644.46
2019-05-07T11:48:37.604Z,98640.86
2019-05-07T11:54:02.168Z,98634.64
2019-05-07T11:59:07.823Z,98625.78
2019-05-07T12:04:14.455Z,98626.31
2019-05-07T12:09:21.774Z,98620.30
2019-05-07T12:14:31.765Z,98619.13
2019-05-07T12:19:35.290Z,98610.96
2019-05-07T12:24:41.935Z,98613.06
2019-05-07T12:29:47.482Z,98608.88
2019-05-07T12:34:58.944Z,98607.06
2019-05-07T12:40:05.085Z,98605.30
2019-05-07T12:45:12.622Z,98598.16
2019-05-07T12:50:18.105Z,98599.64
2019-05-07T12:55:35.011Z,98599.67
2019-05-07T13:00:55.018Z,98593.79
2019-05-07T13:06:02.362Z,98585.43
2019-05-07T13:11:07.296Z,98574.05
2019-05-07T13:16:12.882Z,98570.27
2019-05-07T13:25:11.973Z,98560.10
2019-05-07T13:30:17.531Z,98562.98
2019-05-07T13:35:22.809Z,98566.59
2019-05-07T13:40:34.428Z,98553.42
2019-05-07T13:46:02.707Z,98550.95
2019-05-07T13:51:08.257Z,98546.84
2019-05-07T13:56:13.564Z,98548.75
2019-05-07T14:01:37.766Z,98537.16
2019-05-07T14:06:43.351Z,98527.39
2019-05-07T14:11:49.010Z,98526.83
2019-05-07T14:16:54.281Z,98520.95
2019-05-07T14:21:59.501Z,98512.57
2019-05-07T14:27:04.857Z,98511.23
2019-05-07T14:32:29.138Z,98496.62
2019-05-07T14:37:37.874Z,98493.13
2019-05-07T14:42:48.685Z,98483.41
2019-05-07T14:47:54.960Z,98474.28
2019-05-07T14:53:02.555Z,98474.52
2019-05-07T14:58:07.748Z,98475.45
2019-05-07T15:03:13.269Z,98475.55
2019-05-07T15:08:18.765Z,98469.09
2019-05-07T15:13:24.161Z,98462.02
2019-05-07T15:18:48.757Z,98455.67
2019-05-07T15:23:56.224Z,98448.65
2019-05-07T15:29:07.158Z,98448.02
2019-05-07T15:34:12.653Z,98443.40
2019-05-07T15:39:17.952Z,98442.70
2019-05-07T15:44:23.159Z,98438.31
2019-05-07T15:49:28.970Z,98427.53
2019-05-07T15:54:34.188Z,98427.20
2019-05-07T15:59:39.486Z,98413.11
2019-05-07T16:04:45.387Z,98408.00
2019-05-07T16:09:52.618Z,98401.33
2019-05-07T16:14:58.092Z,98395.54
2019-05-07T16:20:03.581Z,98390.03
2019-05-07T16:25:09.078Z,98383.74
2019-05-07T16:30:15.083Z,98383.80
2019-05-07T16:35:22.631Z,98380.77
2019-05-07T16:40:27.719Z,98376.08
2019-05-07T16:45:33.054Z,98373.70
2019-05-07T16:50:38.496Z,98368.47
2019-05-07T16:55:43.825Z,98353.91
2019-05-07T17:00:52.769Z,98357.06
2019-05-07T17:05:58.192Z,98355.07
2019-05-07T17:11:03.573Z,98359.73
2019-05-07T17:16:12.210Z,98357.38
2019-05-07T17:21:17.023Z,98358.44
2019-05-07T17:26:23.742Z,98358.02
2019-05-07T17:31:28.963Z,98354.15
2019-05-07T17:36:34.405Z,98359.04
2019-05-07T17:41:40.272Z,98358.42
2019-05-07T17:46:46.228Z,98358.22
2019-05-07T17:51:52.727Z,98357.31
2019-05-07T17:56:58.056Z,98357.50
2019-05-07T18:02:19.342Z,98352.80
2019-05-07T18:07:25.026Z,98345.52
2019-05-07T18:12:32.041Z,98345.80
2019-05-07T18:18:03.068Z,98337.95
2019-05-07T18:23:10.645Z,98337.30
2019-05-07T18:28:16.157Z,98344.75
2019-05-07T18:33:42.503Z,98346.69
2019-05-07T18:38:48.144Z,98340.54
2019-05-07T18:43:54.736Z,98338.91
2019-05-07T18:49:00.242Z,98339.78
2019-05-07T18:54:05.958Z,98335.78
2019-05-07T18:59:12.011Z,98336.66
2019-05-07T19:04:17.991Z,98332.25
2019-05-07T19:09:23.660Z,98330.69
2019-05-07T19:14:29.079Z,98334.91
2019-05-07T19:19:34.893Z,98341.09
2019-05-07T19:24:45.247Z,98339.67
2019-05-07T19:29:48.268Z,98342.62
2019-05-07T19:34:55.087Z,98339.63
2019-05-07T19:40:02.024Z,98333.84
2019-05-07T19:45:12.805Z,98329.84
2019-05-07T19:50:19.518Z,98338.19
2019-05-07T19:55:24.955Z,98338.90
2019-05-07T20:00:32.831Z,98339.57
2019-05-07T20:05:39.381Z,98340.91
2019-05-07T20:10:58.325Z,98331.41
2019-05-07T20:16:13.864Z,98325.89
2019-05-07T20:21:22.648Z,98322.05
2019-05-07T20:26:27.441Z,98314.27
2019-05-07T20:31:33.841Z,98310.73
2019-05-07T20:36:40.104Z,98315.70
2019-05-07T20:41:46.563Z,98315.16
2019-05-07T20:46:53.603Z,98313.22
2019-05-07T20:51:59.713Z,98304.56
2019-05-07T20:57:08.305Z,98310.20
2019-05-07T21:02:16.325Z,98296.56
2019-05-07T21:07:22.220Z,98292.48
2019-05-07T21:12:28.048Z,98287.48
2019-05-07T21:17:35.108Z,98275.79
2019-05-07T21:22:42.446Z,98268.08
2019-05-07T21:27:48.318Z,98260.97
2019-05-07T21:32:54.635Z,98253.25
2019-05-07T21:38:01.243Z,98249.21
2019-05-07T21:43:07.206Z,98258.63
2019-05-07T21:48:13.822Z,98253.47
2019-05-07T21:53:25.542Z,98244.31
2019-05-07T21:58:40.994Z,98244.21
2019-05-07T22:03:56.113Z,98240.72
2019-05-07T22:09:02.581Z,98241.80
2019-05-07T22:14:10.049Z,98238.32
2019-05-07T22:19:16.239Z,98232.86
2019-05-07T22:24:22.584Z,98226.37
2019-05-07T22:29:28.475Z,98227.48
2019-05-07T22:34:56.639Z,98219.37
2019-05-07T22:40:04.205Z,98206.95
2019-05-07T22:45:12.104Z,98198.77
2019-05-07T22:50:18.080Z,98189.94
2019-05-07T22:55:23.458Z,98186.45
2019-05-07T23:00:33.568Z,98189.94
2019-05-07T23:05:39.267Z,98171.70
2019-05-07T23:10:44.757Z,98169.55
2019-05-07T23:15:51.653Z,98163.52
2019-05-07T23:20:57.284Z,98154.13
2019-05-07T23:26:02.957Z,98148.12
2019-05-07T23:31:08.262Z,98135.20
2019-05-07T23:36:14.835Z,98138.59
2019-05-07T23:41:42.152Z,98135.09
2019-05-07T23:46:51.844Z,98127.03
2019-05-07T23:51:57.043Z,98114.84
2019-05-07T23:57:07.110Z,98097.49
